| Date | Time | Temp. (oF) | Dew Point (oF) | Rel. Hum. (%) | Press. (in.) | Wind Dir. | Wind Speed (mph) | Hourly Rainfall (in.) |
|
|---|---|---|---|---|---|---|---|---|---|
| 1 | 10/01 | 00:00 | 50 | 46 | 87 | 30.23 | SSE | 0 | 0.00 |
| 2 | 09/30 | 23:00 | 52 | 46 | 80 | 30.23 | SSE | 0 | 0.00 |
| 3 | 09/30 | 22:00 | 54 | 45 | 73 | 30.23 | SSE | 0 | 0.00 |
| 4 | 09/30 | 21:00 | 57 | 45 | 66 | 30.21 | SSE | 0 | 0.00 |
| 5 | 09/30 | 20:00 | 60 | 46 | 62 | 30.20 | S | 1 | 0.00 |
| 6 | 09/30 | 19:00 | 63 | 46 | 54 | 30.17 | SSE | 2 | 0.00 |
| 7 | 09/30 | 18:00 | 67 | 45 | 46 | 30.14 | S | 3 | 0.00 |
| 8 | 09/30 | 17:00 | 69 | 45 | 43 | 30.14 | S | 3 | 0.00 |
| 9 | 09/30 | 16:00 | 68 | 44 | 43 | 30.15 | SSW | 4 | 0.00 |
| 10 | 09/30 | 15:00 | 67 | 45 | 46 | 30.17 | SSW | 2 | 0.00 |
| 11 | 09/30 | 14:00 | 65 | 44 | 47 | 30.20 | S | 4 | 0.00 |
| 12 | 09/30 | 13:00 | 64 | 44 | 50 | 30.21 | SE | 1 | 0.00 |
| 13 | 09/30 | 12:00 | 63 | 45 | 52 | 30.22 | E | 6 | 0.00 |
| 14 | 09/30 | 11:00 | 61 | 46 | 60 | 30.24 | WNW | 0 | 0.00 |
| 15 | 09/30 | 10:00 | 56 | 44 | 66 | 30.25 | ESE | 0 | 0.00 |
| 16 | 09/30 | 09:00 | 49 | 45 | 89 | 30.24 | S | 0 | 0.00 |
| 17 | 09/30 | 08:00 | 41 | 40 | 98 | 30.23 | SSE | 0 | 0.00 |
| 18 | 09/30 | 07:00 | 41 | 39 | 95 | 30.20 | SSE | 0 | 0.00 |
| 19 | 09/30 | 06:00 | 42 | 39 | 91 | 30.18 | S | 0 | 0.00 |
| 20 | 09/30 | 05:00 | 44 | 39 | 83 | 30.16 | N | 0 | 0.00 |
| 21 | 09/30 | 04:00 | 45 | 39 | 81 | 30.14 | NNW | 0 | 0.00 |
| 22 | 09/30 | 03:00 | 45 | 38 | 79 | 30.14 | WNW | 0 | 0.00 |
| 23 | 09/30 | 02:00 | 48 | 40 | 75 | 30.14 | WSW | 0 | 0.00 |
| 24 | 09/30 | 01:00 | 47 | 39 | 75 | 30.12 | NNW | 0 | 0.00 |